To NAV CANADA Home Page Login to a new session Search on AWWS site Feedback and Comments Disclaimer Vers la page française équivalente Tips FAQ What's new on the site To the Forecasts and Observations / NOTAM section To "File a Flight Plan" website Publications and other links Update of the User's profile FIC Telephone Numbers My Weather Data Folder Route Weather Data Regional Weather Data Local Weather Data To the Forecasts and Observations / NOTAM section
Request Generated 04/23/2014 at 17:31:10 UTC . Weather information available at that time is displayed.

METAR/TAF

SCHEFFERVILLE/QC    (show WxCam)

METAR CYKL 231700Z AUTO 06008KT 040V100 9SM OVC016 00/M04 A2979 RMK
SLP116=
SPECI CYKL 231645Z AUTO 08009KT 9SM OVC016 00/M04 A2979 RMK SLP116=
SPECI CYKL 231641Z AUTO 07009KT 9SM -SN OVC016 00/M04 A2979 RMK
SLP116=
SPECI CYKL 231635Z AUTO 08008KT 9SM -SNRA OVC016 00/M04 A2979 RMK
SLP116=
SPECI CYKL 231631Z AUTO 06008KT 9SM -RA OVC016 M00/M03 A2979 RMK
SLP116=
METAR CYKL 231600Z AUTO 04009KT 9SM OVC014 M00/M03 A2979 RMK SLP115=
METAR CYKL 231500Z AUTO 05008KT 9SM OVC012 M01/M03 A2979 RMK SLP117=

TAF CYKL 231338Z 2314/2402 03008KT 3SM -SN OVC007 TEMPO 2314/2402 6SM
-SN BKN012 OVC030
BECMG 2316/2318 10008KT
RMK FCST BASED ON AUTO OBS. NXT FCST BY 232000Z=
Your time UTC time
Weather data provided by Environment Canada and NAV CANADA